KBKL/BKL METAR and TAF weather

Enter ICAO airport designator
Station Type Date Time Source
KBKL METAR 2018/04/21 10:53 UTC NOAA

KBKL 211053Z 15005KT 10SM CLR 00/M06 A3048 RMK AO2 SLP327 T00001056


Station Type Date Time Source
KBKL Decoded METAR 2018/04/21 10:53 UTC NOAA

CLEVELAND BURKE LAKEFRONT, OH, United States (KBKL) 41-32N 81-40W 184M
Apr 21, 2018 - 06:53 AM EDT / 2018.04.21 1053 UTC
Wind: from the SSE (150 degrees) at 6 MPH (5 KT):0
Visibility: 10 mile(s):0
Sky conditions: clear
Temperature: 32.0 F (0.0 C)
Windchill: 26 F (-3 C):1
Dew Point: 21.9 F (-5.6 C)
Relative Humidity: 65%
Pressure (altimeter): 30.48 in. Hg (1032 hPa)
ob: KBKL 211053Z 15005KT 10SM CLR 00/M06 A3048 RMK AO2 SLP327 T00001056
cycle: 11

Station Type Date Time Source
KBKL TAF UTC NOAA

Error!


Example: see airport list